createdAt,value
2023-08-08T00:01:57.519Z,100.00
2023-08-08T00:04:42.791Z,100.00
2023-08-08T00:07:30.695Z,100.00
2023-08-08T00:10:15.431Z,100.00
2023-08-08T00:13:00.452Z,100.00
2023-08-08T00:15:47.091Z,100.00
2023-08-08T00:18:31.673Z,100.00
2023-08-08T00:21:17.144Z,100.00
2023-08-08T00:24:01.682Z,100.00
2023-08-08T00:26:46.690Z,100.00
2023-08-08T00:29:31.698Z,100.00
2023-08-08T00:32:17.315Z,100.00
2023-08-08T00:35:02.461Z,100.00
2023-08-08T00:37:47.337Z,100.00
2023-08-08T00:40:32.370Z,100.00
2023-08-08T00:43:17.502Z,100.00
2023-08-08T00:46:03.511Z,100.00
2023-08-08T00:48:48.541Z,100.00
2023-08-08T00:51:33.554Z,100.00
2023-08-08T00:54:18.640Z,100.00
2023-08-08T00:57:03.736Z,100.00
2023-08-08T00:59:49.058Z,100.00
2023-08-08T01:02:34.076Z,100.00
2023-08-08T01:05:19.155Z,100.00
2023-08-08T01:08:06.387Z,100.00
2023-08-08T01:10:51.891Z,100.00
2023-08-08T01:13:38.845Z,100.00
2023-08-08T01:16:26.621Z,100.00
2023-08-08T01:19:22.225Z,100.00
2023-08-08T01:22:14.863Z,100.00
2023-08-08T01:25:01.037Z,100.00
2023-08-08T01:27:47.006Z,100.00
2023-08-08T01:30:31.968Z,100.00
2023-08-08T01:33:19.462Z,100.00
2023-08-08T01:36:14.390Z,100.00
2023-08-08T01:39:04.763Z,100.00
2023-08-08T01:41:50.926Z,100.00
2023-08-08T01:44:37.222Z,100.00
2023-08-08T01:47:22.121Z,100.00
2023-08-08T01:50:08.074Z,100.00
2023-08-08T01:52:52.849Z,100.00
2023-08-08T01:55:39.115Z,100.00
2023-08-08T01:58:23.991Z,100.00
2023-08-08T02:01:09.189Z,100.00
2023-08-08T02:03:54.388Z,100.00
2023-08-08T02:06:39.177Z,100.00
2023-08-08T02:09:24.315Z,100.00
2023-08-08T02:12:10.411Z,100.00
2023-08-08T02:14:55.087Z,100.00
2023-08-08T02:17:40.003Z,100.00
2023-08-08T02:20:24.786Z,100.00
2023-08-08T02:23:11.489Z,100.00
2023-08-08T02:25:56.203Z,100.00
2023-08-08T02:28:41.588Z,100.00
2023-08-08T02:31:27.920Z,100.00
2023-08-08T02:34:12.858Z,100.00
2023-08-08T02:36:57.844Z,100.00
2023-08-08T02:39:45.734Z,100.00
2023-08-08T02:42:30.582Z,100.00
2023-08-08T02:45:15.741Z,100.00
2023-08-08T02:48:00.560Z,100.00
2023-08-08T02:50:46.345Z,100.00
2023-08-08T02:53:31.115Z,100.00
2023-08-08T02:56:16.134Z,100.00
2023-08-08T02:59:01.603Z,100.00
2023-08-08T03:01:48.103Z,100.00
2023-08-08T03:04:36.193Z,100.00
2023-08-08T03:07:22.144Z,100.00
2023-08-08T03:10:07.080Z,100.00
2023-08-08T03:12:52.899Z,100.00
2023-08-08T03:15:39.346Z,100.00
2023-08-08T03:18:26.317Z,100.00
2023-08-08T03:21:11.275Z,100.00
2023-08-08T03:23:56.177Z,100.00
2023-08-08T03:26:40.956Z,100.00
2023-08-08T03:29:26.163Z,100.00
2023-08-08T03:32:13.024Z,100.00
2023-08-08T03:34:58.854Z,100.00
2023-08-08T03:37:44.018Z,100.00
2023-08-08T03:40:31.349Z,100.00
2023-08-08T03:43:16.402Z,100.00
2023-08-08T03:46:02.040Z,100.00
2023-08-08T03:48:48.090Z,100.00
2023-08-08T03:51:32.891Z,100.00
2023-08-08T03:54:18.864Z,100.00
2023-08-08T03:57:03.676Z,100.00
2023-08-08T03:59:48.589Z,100.00
2023-08-08T04:02:33.538Z,100.00
2023-08-08T04:05:19.973Z,100.00
2023-08-08T04:08:04.929Z,100.00
2023-08-08T04:10:50.117Z,100.00
2023-08-08T04:13:34.967Z,100.00
2023-08-08T04:16:19.838Z,100.00
2023-08-08T04:19:04.961Z,100.00
2023-08-08T04:21:49.838Z,100.00
2023-08-08T04:24:34.538Z,100.00
2023-08-08T04:27:19.436Z,100.00
2023-08-08T04:30:04.838Z,100.00
2023-08-08T04:32:49.585Z,100.00
2023-08-08T04:35:34.550Z,100.00
2023-08-08T04:38:19.361Z,100.00
2023-08-08T04:41:04.057Z,100.00
2023-08-08T04:43:49.224Z,100.00
2023-08-08T04:46:33.967Z,100.00
2023-08-08T04:49:18.968Z,100.00
2023-08-08T04:52:04.742Z,100.00
2023-08-08T04:54:49.375Z,100.00
2023-08-08T04:57:34.397Z,100.00
2023-08-08T05:00:19.296Z,100.00
2023-08-08T05:03:04.723Z,100.00
2023-08-08T05:05:49.738Z,100.00
2023-08-08T05:08:57.304Z,100.00
2023-08-08T05:11:42.175Z,100.00
2023-08-08T05:14:27.269Z,100.00
2023-08-08T05:17:12.133Z,100.00
2023-08-08T05:19:57.389Z,100.00
2023-08-08T05:22:42.136Z,100.00
2023-08-08T05:25:26.793Z,100.00
2023-08-08T05:28:11.625Z,100.00
2023-08-08T05:30:56.877Z,100.00
2023-08-08T05:33:42.618Z,100.00
2023-08-08T05:36:27.554Z,100.00
2023-08-08T05:39:12.571Z,100.00
2023-08-08T05:41:57.221Z,100.00
2023-08-08T05:44:44.934Z,100.00
2023-08-08T05:47:29.330Z,100.00
2023-08-08T05:50:14.445Z,100.00
2023-08-08T05:52:59.336Z,100.00
2023-08-08T05:55:44.493Z,100.00
2023-08-08T05:58:29.592Z,100.00
2023-08-08T06:01:14.537Z,100.00
2023-08-08T06:04:00.252Z,100.00
2023-08-08T06:06:45.093Z,100.00
2023-08-08T06:09:31.672Z,100.00
2023-08-08T06:12:16.573Z,100.00
2023-08-08T06:15:01.529Z,100.00
2023-08-08T06:17:46.768Z,100.00
2023-08-08T06:20:31.710Z,100.00
2023-08-08T06:23:17.223Z,100.00
2023-08-08T06:26:02.337Z,100.00
2023-08-08T06:28:47.967Z,100.00
2023-08-08T06:31:33.428Z,100.00
2023-08-08T06:34:18.222Z,100.00
2023-08-08T06:37:03.031Z,100.00
2023-08-08T06:39:47.858Z,100.00
2023-08-08T06:42:32.323Z,100.00
2023-08-08T06:45:19.903Z,100.00
2023-08-08T06:48:05.103Z,100.00
2023-08-08T06:50:50.153Z,100.00
2023-08-08T06:53:35.006Z,100.00
2023-08-08T06:56:20.404Z,100.00
2023-08-08T06:59:05.549Z,100.00
2023-08-08T07:01:51.088Z,100.00
2023-08-08T07:04:35.917Z,100.00
2023-08-08T07:07:21.227Z,100.00
2023-08-08T07:10:07.179Z,100.00
2023-08-08T07:12:52.015Z,100.00
2023-08-08T07:15:38.554Z,100.00
2023-08-08T07:18:23.592Z,100.00
2023-08-08T07:21:08.768Z,100.00
2023-08-08T07:23:54.738Z,100.00
2023-08-08T07:26:39.900Z,100.00
2023-08-08T07:29:24.909Z,100.00
2023-08-08T07:32:09.837Z,100.00
2023-08-08T07:34:54.551Z,100.00
2023-08-08T07:37:39.705Z,100.00
2023-08-08T07:40:24.641Z,100.00
2023-08-08T07:43:09.637Z,100.00
2023-08-08T07:45:54.476Z,100.00
2023-08-08T07:48:39.093Z,100.00
2023-08-08T07:51:24.338Z,100.00
2023-08-08T07:54:11.082Z,100.00
2023-08-08T07:56:55.753Z,100.00
2023-08-08T07:59:40.837Z,100.00
2023-08-08T08:02:25.964Z,100.00
2023-08-08T08:05:10.955Z,100.00
2023-08-08T08:07:55.757Z,100.00
2023-08-08T08:10:40.726Z,100.00
2023-08-08T08:13:26.417Z,100.00
2023-08-08T08:16:11.288Z,100.00
2023-08-08T08:18:56.213Z,100.00
2023-08-08T08:21:41.112Z,100.00
2023-08-08T08:24:26.148Z,100.00
2023-08-08T08:27:11.156Z,100.00
2023-08-08T08:29:56.165Z,100.00
2023-08-08T08:32:42.501Z,100.00
2023-08-08T08:35:28.236Z,100.00
2023-08-08T08:38:14.337Z,100.00
2023-08-08T08:40:59.841Z,100.00
2023-08-08T08:43:45.019Z,100.00
2023-08-08T08:46:30.961Z,100.00
2023-08-08T08:49:19.167Z,100.00
2023-08-08T08:52:06.228Z,100.00
2023-08-08T08:54:52.977Z,100.00
2023-08-08T08:57:39.446Z,100.00
2023-08-08T09:00:26.266Z,100.00
2023-08-08T09:03:11.385Z,100.00
2023-08-08T09:05:57.468Z,100.00
2023-08-08T09:08:42.639Z,100.00
2023-08-08T09:11:27.697Z,100.00
2023-08-08T09:14:20.181Z,100.00
2023-08-08T09:17:11.779Z,100.00
2023-08-08T09:19:58.630Z,100.00
2023-08-08T09:22:43.659Z,98.62
2023-08-08T09:25:28.841Z,86.93
2023-08-08T09:28:14.358Z,87.88
2023-08-08T09:30:59.803Z,92.41
2023-08-08T09:33:44.738Z,87.81
2023-08-08T09:36:31.101Z,76.62
2023-08-08T09:39:18.302Z,77.01
2023-08-08T09:42:04.921Z,74.30
2023-08-08T09:44:51.278Z,61.31
2023-08-08T09:47:36.662Z,59.12
2023-08-08T09:50:21.424Z,56.03
2023-08-08T09:53:07.279Z,57.37
2023-08-08T09:55:53.893Z,56.12
2023-08-08T09:58:38.856Z,55.51
2023-08-08T10:01:26.489Z,53.92
2023-08-08T10:04:13.178Z,57.06
2023-08-08T10:06:58.195Z,60.64
2023-08-08T10:09:43.135Z,79.20
2023-08-08T10:12:28.690Z,96.14
2023-08-08T10:15:13.806Z,100.00
2023-08-08T10:18:00.996Z,100.00
2023-08-08T10:20:48.579Z,100.00
2023-08-08T10:23:38.357Z,100.00
2023-08-08T10:26:23.468Z,100.00
2023-08-08T10:29:08.427Z,100.00
2023-08-08T10:31:54.736Z,100.00
2023-08-08T10:34:44.266Z,100.00
2023-08-08T10:37:29.125Z,100.00
2023-08-08T10:40:19.022Z,100.00
2023-08-08T10:43:12.708Z,100.00
2023-08-08T10:46:12.953Z,70.09
2023-08-08T10:49:02.182Z,61.35
2023-08-08T10:51:48.918Z,66.59
2023-08-08T10:54:34.366Z,83.51
2023-08-08T10:57:19.895Z,93.34
2023-08-08T11:00:18.000Z,96.18
2023-08-08T11:03:06.909Z,87.43
2023-08-08T11:05:53.221Z,73.53
2023-08-08T11:08:38.956Z,79.97
2023-08-08T11:11:23.701Z,79.63
2023-08-08T11:14:16.847Z,77.25
2023-08-08T11:17:02.196Z,79.15
2023-08-08T11:19:47.442Z,87.32
2023-08-08T11:22:32.264Z,82.20
2023-08-08T11:25:16.883Z,73.72
2023-08-08T11:28:01.804Z,65.21
2023-08-08T11:30:47.353Z,58.00
2023-08-08T11:33:32.388Z,55.69
2023-08-08T11:36:17.254Z,57.08
2023-08-08T11:39:11.000Z,56.81
2023-08-08T11:41:56.912Z,54.42
2023-08-08T11:44:43.639Z,52.19
2023-08-08T11:47:32.141Z,46.81
2023-08-08T11:50:20.413Z,46.39
2023-08-08T11:53:07.196Z,46.75
2023-08-08T11:55:52.086Z,54.25
2023-08-08T11:58:37.093Z,93.91
2023-08-08T12:01:23.921Z,100.00
2023-08-08T12:04:09.697Z,100.00
2023-08-08T12:07:04.211Z,100.00
2023-08-08T12:09:49.416Z,100.00
2023-08-08T12:12:39.813Z,100.00
2023-08-08T12:15:36.437Z,100.00
2023-08-08T12:18:21.153Z,100.00
2023-08-08T12:21:07.493Z,100.00
2023-08-08T12:23:53.128Z,100.00
2023-08-08T12:26:38.798Z,100.00
2023-08-08T12:29:23.664Z,100.00
2023-08-08T12:32:08.620Z,100.00
2023-08-08T12:34:53.130Z,100.00
2023-08-08T12:59:09.401Z,100.00
2023-08-08T13:01:54.329Z,100.00
2023-08-08T13:04:39.154Z,100.00
2023-08-08T13:07:24.426Z,100.00
2023-08-08T13:10:10.304Z,100.00
2023-08-08T13:12:56.069Z,100.00
2023-08-08T13:15:41.375Z,90.83
2023-08-08T13:18:26.487Z,73.41
2023-08-08T13:21:11.391Z,82.67
2023-08-08T13:23:56.248Z,79.76
2023-08-08T13:26:40.842Z,75.16
2023-08-08T13:29:25.403Z,85.66
2023-08-08T13:32:10.295Z,98.96
2023-08-08T13:34:55.325Z,100.00
2023-08-08T13:37:40.170Z,100.00
2023-08-08T13:40:24.782Z,100.00
2023-08-08T13:43:10.300Z,89.60
2023-08-08T13:45:55.404Z,66.78
2023-08-08T13:48:40.527Z,58.15
2023-08-08T13:51:25.652Z,50.07
2023-08-08T13:54:10.513Z,51.26
2023-08-08T13:56:55.073Z,53.23
2023-08-08T13:59:39.970Z,52.68
2023-08-08T14:02:25.316Z,54.96
2023-08-08T14:05:10.740Z,70.17
2023-08-08T14:07:55.737Z,76.40
2023-08-08T14:10:41.625Z,73.95
2023-08-08T14:13:26.365Z,59.92
2023-08-08T14:16:11.043Z,63.04
2023-08-08T14:18:55.837Z,61.30
2023-08-08T14:21:40.610Z,54.16
2023-08-08T14:24:25.556Z,51.18
2023-08-08T14:27:10.247Z,48.35
2023-08-08T14:29:55.558Z,50.84
2023-08-08T14:32:40.120Z,54.68
2023-08-08T14:35:25.119Z,57.38
2023-08-08T14:38:10.496Z,54.88
2023-08-08T14:40:55.305Z,50.76
2023-08-08T14:43:40.133Z,49.49
2023-08-08T14:46:25.110Z,48.08
2023-08-08T14:49:10.042Z,45.54
2023-08-08T14:51:54.992Z,43.14
2023-08-08T14:54:40.056Z,42.92
2023-08-08T14:57:25.788Z,42.55
2023-08-08T15:00:12.998Z,44.63
2023-08-08T15:02:57.904Z,45.31
2023-08-08T15:05:45.845Z,45.64
2023-08-08T15:08:30.605Z,45.49
2023-08-08T15:11:15.471Z,43.82
2023-08-08T15:14:00.511Z,42.86
2023-08-08T15:16:52.723Z,41.94
2023-08-08T15:19:38.503Z,42.04
2023-08-08T15:22:23.283Z,41.60
2023-08-08T15:25:09.145Z,42.79
2023-08-08T15:27:53.921Z,43.46
2023-08-08T15:30:38.756Z,42.25
2023-08-08T15:33:23.978Z,42.32
2023-08-08T15:36:09.116Z,42.07
2023-08-08T15:38:53.995Z,42.27
2023-08-08T15:41:38.458Z,42.66
2023-08-08T15:44:23.569Z,42.89
2023-08-08T15:47:08.966Z,42.75
2023-08-08T15:49:54.473Z,42.90
2023-08-08T15:52:39.517Z,43.73
2023-08-08T15:55:24.622Z,43.30
2023-08-08T15:58:10.086Z,43.76
2023-08-08T16:00:56.103Z,44.21
2023-08-08T16:03:41.099Z,43.87
2023-08-08T16:06:26.192Z,43.93
2023-08-08T16:09:11.250Z,44.12
2023-08-08T16:11:56.312Z,45.94
2023-08-08T16:14:41.181Z,46.07
2023-08-08T16:17:25.880Z,45.74
2023-08-08T16:20:11.368Z,45.70
2023-08-08T16:22:56.385Z,45.83
2023-08-08T16:25:41.189Z,46.32
2023-08-08T16:28:26.659Z,47.57
2023-08-08T16:31:11.670Z,50.03
2023-08-08T16:33:56.805Z,51.42
2023-08-08T16:36:41.896Z,52.61
2023-08-08T16:39:27.123Z,53.77
2023-08-08T16:42:12.362Z,54.07
2023-08-08T16:44:58.721Z,54.27
2023-08-08T16:47:43.839Z,52.35
2023-08-08T16:50:28.727Z,51.34
2023-08-08T16:53:13.698Z,51.11
2023-08-08T16:56:03.060Z,51.05
2023-08-08T16:58:48.551Z,51.58
2023-08-08T17:01:33.087Z,51.49
2023-08-08T17:04:18.779Z,52.55
2023-08-08T17:07:03.538Z,54.02
2023-08-08T17:09:48.575Z,55.22
2023-08-08T17:12:33.098Z,57.53
2023-08-08T17:15:18.344Z,63.52
2023-08-08T17:18:03.720Z,77.72
2023-08-08T17:20:48.571Z,90.05
2023-08-08T17:23:33.832Z,97.59
2023-08-08T17:26:18.574Z,100.00
2023-08-08T17:29:03.584Z,100.00
2023-08-08T17:31:48.504Z,100.00
2023-08-08T17:34:33.166Z,100.00
2023-08-08T17:37:18.170Z,100.00
2023-08-08T17:40:03.530Z,100.00
2023-08-08T17:42:48.094Z,100.00
2023-08-08T17:45:34.783Z,100.00
2023-08-08T17:48:19.600Z,100.00
2023-08-08T17:51:04.527Z,100.00
2023-08-08T17:53:49.271Z,100.00
2023-08-08T17:56:34.415Z,100.00
2023-08-08T17:59:19.266Z,100.00
2023-08-08T18:02:04.640Z,100.00
2023-08-08T18:04:49.978Z,100.00
2023-08-08T18:07:34.738Z,100.00
2023-08-08T18:10:20.074Z,100.00
2023-08-08T18:13:04.842Z,100.00
2023-08-08T18:15:49.703Z,100.00
2023-08-08T18:18:34.948Z,100.00
2023-08-08T18:21:19.761Z,100.00
2023-08-08T18:24:05.430Z,100.00
2023-08-08T18:26:50.496Z,100.00
2023-08-08T18:29:35.453Z,100.00
2023-08-08T18:32:20.150Z,100.00
2023-08-08T18:35:05.105Z,100.00
2023-08-08T18:37:49.639Z,100.00
2023-08-08T18:40:35.445Z,100.00
2023-08-08T18:43:20.514Z,100.00
2023-08-08T18:46:05.874Z,100.00
2023-08-08T18:48:50.913Z,100.00
2023-08-08T18:51:35.858Z,100.00
2023-08-08T18:54:24.369Z,100.00
2023-08-08T18:57:09.071Z,100.00
2023-08-08T18:59:54.304Z,100.00
2023-08-08T19:02:38.939Z,100.00
2023-08-08T19:05:23.841Z,100.00
2023-08-08T19:08:08.730Z,100.00
2023-08-08T19:10:53.810Z,100.00
2023-08-08T19:13:38.824Z,100.00
2023-08-08T19:16:23.436Z,100.00
2023-08-08T19:19:08.405Z,100.00
2023-08-08T19:21:53.896Z,100.00
2023-08-08T19:24:38.795Z,100.00
2023-08-08T19:27:23.766Z,100.00
2023-08-08T19:30:10.396Z,100.00
2023-08-08T19:32:55.201Z,100.00
2023-08-08T19:35:40.222Z,100.00
2023-08-08T19:38:24.774Z,100.00
2023-08-08T19:41:09.789Z,100.00
2023-08-08T19:43:54.800Z,100.00
2023-08-08T19:46:39.548Z,100.00
2023-08-08T19:49:24.239Z,100.00
2023-08-08T19:52:09.603Z,100.00
2023-08-08T19:54:54.414Z,100.00
2023-08-08T19:57:39.173Z,100.00
2023-08-08T20:00:24.420Z,100.00
2023-08-08T20:03:09.352Z,100.00
2023-08-08T20:05:54.731Z,100.00
2023-08-08T20:08:39.790Z,100.00
2023-08-08T20:11:26.209Z,100.00
2023-08-08T20:14:11.244Z,100.00
2023-08-08T20:16:56.080Z,100.00
2023-08-08T20:19:40.972Z,100.00
2023-08-08T20:22:25.882Z,100.00
2023-08-08T20:25:11.999Z,100.00
2023-08-08T20:27:56.550Z,100.00
2023-08-08T20:30:42.633Z,100.00
2023-08-08T20:33:29.218Z,100.00
2023-08-08T20:36:14.914Z,100.00
2023-08-08T20:38:59.701Z,100.00
2023-08-08T20:41:44.614Z,100.00
2023-08-08T20:44:29.314Z,100.00
2023-08-08T20:47:14.344Z,100.00
2023-08-08T20:49:59.300Z,100.00
2023-08-08T20:52:44.368Z,100.00
2023-08-08T20:55:29.574Z,100.00
2023-08-08T20:58:14.649Z,100.00
2023-08-08T21:00:59.378Z,100.00
2023-08-08T21:03:44.589Z,100.00
2023-08-08T21:06:29.518Z,100.00
2023-08-08T21:09:14.582Z,100.00
2023-08-08T21:11:59.990Z,100.00
2023-08-08T21:14:44.765Z,100.00
2023-08-08T21:17:29.331Z,100.00
2023-08-08T21:20:14.489Z,100.00
2023-08-08T21:22:59.172Z,100.00
2023-08-08T21:25:43.630Z,100.00
2023-08-08T21:28:30.460Z,100.00
2023-08-08T21:31:15.857Z,100.00
2023-08-08T21:34:01.007Z,100.00
2023-08-08T21:36:46.424Z,100.00
2023-08-08T21:39:31.339Z,100.00
2023-08-08T21:42:17.846Z,100.00
2023-08-08T21:45:02.653Z,100.00
2023-08-08T21:47:47.407Z,100.00
2023-08-08T21:50:32.366Z,100.00
2023-08-08T21:53:17.393Z,100.00
2023-08-08T21:56:03.037Z,100.00
2023-08-08T21:58:47.800Z,100.00
2023-08-08T22:01:32.887Z,100.00
2023-08-08T22:04:17.482Z,100.00
2023-08-08T22:07:03.153Z,100.00
2023-08-08T22:09:48.596Z,100.00
2023-08-08T22:12:33.494Z,100.00
2023-08-08T22:15:18.857Z,100.00
2023-08-08T22:18:11.738Z,100.00
2023-08-08T22:20:56.345Z,100.00
2023-08-08T22:23:41.314Z,100.00
2023-08-08T22:26:26.034Z,100.00
2023-08-08T22:29:10.717Z,100.00
2023-08-08T22:31:55.805Z,100.00
2023-08-08T22:34:41.042Z,100.00
2023-08-08T22:37:25.739Z,100.00
2023-08-08T22:40:11.309Z,100.00
2023-08-08T22:42:56.303Z,100.00
2023-08-08T22:45:41.144Z,100.00
2023-08-08T22:48:26.226Z,100.00
2023-08-08T22:51:11.489Z,100.00
2023-08-08T22:53:56.287Z,100.00
2023-08-08T22:56:41.380Z,100.00
2023-08-08T22:59:26.054Z,100.00
2023-08-08T23:02:11.762Z,100.00
2023-08-08T23:04:56.719Z,100.00
2023-08-08T23:07:41.486Z,100.00
2023-08-08T23:10:25.919Z,100.00
2023-08-08T23:13:11.149Z,100.00
2023-08-08T23:15:55.672Z,100.00
2023-08-08T23:18:40.194Z,100.00
2023-08-08T23:21:24.821Z,100.00
2023-08-08T23:24:09.953Z,100.00
2023-08-08T23:26:54.714Z,100.00
2023-08-08T23:29:39.580Z,100.00
2023-08-08T23:32:24.319Z,100.00
2023-08-08T23:35:09.686Z,100.00
2023-08-08T23:37:54.349Z,100.00
2023-08-08T23:40:39.224Z,100.00
2023-08-08T23:43:24.360Z,100.00
2023-08-08T23:46:09.306Z,100.00
2023-08-08T23:48:54.135Z,100.00
2023-08-08T23:51:43.547Z,100.00
2023-08-08T23:54:28.510Z,100.00
2023-08-08T23:57:13.119Z,100.00
2023-08-08T23:59:58.276Z,100.00
